sensor_id;sensor_type;location;lat;lon;timestamp;temperature;humidity
22984;DHT22;11658;48.908;9.140;2022-12-29T04:02:47;11.20;99.90
22984;DHT22;11658;48.908;9.140;2022-12-29T04:05:12;11.20;99.90
22984;DHT22;11658;48.908;9.140;2022-12-29T04:07:38;11.10;99.90
22984;DHT22;11658;48.908;9.140;2022-12-29T04:10:03;11.00;99.90
22984;DHT22;11658;48.908;9.140;2022-12-29T04:12:29;11.00;99.90
22984;DHT22;11658;48.908;9.140;2022-12-29T04:14:55;11.00;99.90
22984;DHT22;11658;48.908;9.140;2022-12-29T04:17:20;10.90;99.90
22984;DHT22;11658;48.908;9.140;2022-12-29T04:19:46;10.90;99.90
22984;DHT22;11658;48.908;9.140;2022-12-29T04:22:11;10.90;99.90
22984;DHT22;11658;48.908;9.140;2022-12-29T04:24:37;11.00;99.90
22984;DHT22;11658;48.908;9.140;2022-12-29T04:27:03;11.00;99.90
22984;DHT22;11658;48.908;9.140;2022-12-29T04:29:28;11.00;99.90
22984;DHT22;11658;48.908;9.140;2022-12-29T04:31:54;11.10;99.90
22984;DHT22;11658;48.908;9.140;2022-12-29T04:34:19;11.10;99.90
22984;DHT22;11658;48.908;9.140;2022-12-29T04:36:45;11.10;99.90
22984;DHT22;11658;48.908;9.140;2022-12-29T04:39:11;11.00;99.90
22984;DHT22;11658;48.908;9.140;2022-12-29T04:41:36;11.10;99.90
22984;DHT22;11658;48.908;9.140;2022-12-29T04:44:02;10.90;99.90
22984;DHT22;11658;48.908;9.140;2022-12-29T04:46:28;10.90;99.90
22984;DHT22;11658;48.908;9.140;2022-12-29T04:48:53;10.90;99.90
22984;DHT22;11658;48.908;9.140;2022-12-29T04:51:19;10.80;99.90
22984;DHT22;11658;48.908;9.140;2022-12-29T04:53:44;10.80;99.90
22984;DHT22;11658;48.908;9.140;2022-12-29T04:56:10;10.90;99.90
22984;DHT22;11658;48.908;9.140;2022-12-29T04:58:36;10.90;99.90
22984;DHT22;11658;48.908;9.140;2022-12-29T05:01:02;10.90;99.90
22984;DHT22;11658;48.908;9.140;2022-12-29T05:03:27;11.00;99.90
22984;DHT22;11658;48.908;9.140;2022-12-29T05:05:54;10.90;99.90
22984;DHT22;11658;48.908;9.140;2022-12-29T05:08:20;10.90;99.90
22984;DHT22;11658;48.908;9.140;2022-12-29T05:10:46;11.00;99.90
22984;DHT22;11658;48.908;9.140;2022-12-29T05:13:11;10.90;99.90
22984;DHT22;11658;48.908;9.140;2022-12-29T05:15:37;10.80;99.90
22984;DHT22;11658;48.908;9.140;2022-12-29T05:18:02;10.70;99.90
22984;DHT22;11658;48.908;9.140;2022-12-29T05:20:28;10.70;99.90
22984;DHT22;11658;48.908;9.140;2022-12-29T05:22:53;10.70;99.90
22984;DHT22;11658;48.908;9.140;2022-12-29T05:25:19;10.60;99.90
22984;DHT22;11658;48.908;9.140;2022-12-29T05:27:45;10.60;99.90
22984;DHT22;11658;48.908;9.140;2022-12-29T05:30:11;10.60;99.90
22984;DHT22;11658;48.908;9.140;2022-12-29T05:32:36;10.70;99.90
22984;DHT22;11658;48.908;9.140;2022-12-29T05:35:02;10.70;99.90
22984;DHT22;11658;48.908;9.140;2022-12-29T05:37:28;10.80;99.90
22984;DHT22;11658;48.908;9.140;2022-12-29T05:39:53;10.80;99.90
22984;DHT22;11658;48.908;9.140;2022-12-29T05:42:19;10.90;99.90
22984;DHT22;11658;48.908;9.140;2022-12-29T05:44:44;10.90;99.90
22984;DHT22;11658;48.908;9.140;2022-12-29T05:47:10;10.90;99.90
22984;DHT22;11658;48.908;9.140;2022-12-29T05:49:35;11.00;99.90
22984;DHT22;11658;48.908;9.140;2022-12-29T05:52:01;11.20;99.90
22984;DHT22;11658;48.908;9.140;2022-12-29T05:54:26;11.20;99.90
22984;DHT22;11658;48.908;9.140;2022-12-29T05:56:52;11.20;99.90
22984;DHT22;11658;48.908;9.140;2022-12-29T05:59:17;11.20;99.90
22984;DHT22;11658;48.908;9.140;2022-12-29T06:01:43;11.20;99.90
22984;DHT22;11658;48.908;9.140;2022-12-29T06:04:09;11.30;99.90
22984;DHT22;11658;48.908;9.140;2022-12-29T06:06:34;11.30;99.90
22984;DHT22;11658;48.908;9.140;2022-12-29T06:09:00;11.30;99.90
22984;DHT22;11658;48.908;9.140;2022-12-29T06:11:26;11.20;99.90
22984;DHT22;11658;48.908;9.140;2022-12-29T06:13:51;11.20;99.90
22984;DHT22;11658;48.908;9.140;2022-12-29T06:16:17;11.30;99.90
22984;DHT22;11658;48.908;9.140;2022-12-29T06:18:42;11.40;99.90
22984;DHT22;11658;48.908;9.140;2022-12-29T06:21:08;11.40;99.90
22984;DHT22;11658;48.908;9.140;2022-12-29T06:23:33;11.50;99.90
22984;DHT22;11658;48.908;9.140;2022-12-29T06:25:59;11.40;99.90
22984;DHT22;11658;48.908;9.140;2022-12-29T06:28:25;11.40;99.90
22984;DHT22;11658;48.908;9.140;2022-12-29T06:30:50;11.30;99.90
22984;DHT22;11658;48.908;9.140;2022-12-29T06:33:16;11.30;99.90
22984;DHT22;11658;48.908;9.140;2022-12-29T06:35:42;11.40;99.90
22984;DHT22;11658;48.908;9.140;2022-12-29T06:38:08;11.30;99.90
22984;DHT22;11658;48.908;9.140;2022-12-29T06:40:34;11.30;99.90
22984;DHT22;11658;48.908;9.140;2022-12-29T06:42:59;11.30;99.90
22984;DHT22;11658;48.908;9.140;2022-12-29T06:45:25;11.20;99.90
22984;DHT22;11658;48.908;9.140;2022-12-29T06:47:51;11.30;99.90
22984;DHT22;11658;48.908;9.140;2022-12-29T06:50:16;11.30;99.90
22984;DHT22;11658;48.908;9.140;2022-12-29T06:52:42;11.40;99.90
22984;DHT22;11658;48.908;9.140;2022-12-29T06:55:08;11.40;99.90
22984;DHT22;11658;48.908;9.140;2022-12-29T06:57:34;11.30;99.90
22984;DHT22;11658;48.908;9.140;2022-12-29T06:59:59;11.30;99.90
22984;DHT22;11658;48.908;9.140;2022-12-29T07:02:25;11.30;99.90
22984;DHT22;11658;48.908;9.140;2022-12-29T07:04:51;11.30;99.90
22984;DHT22;11658;48.908;9.140;2022-12-29T07:07:19;11.20;99.90
22984;DHT22;11658;48.908;9.140;2022-12-29T07:09:45;11.10;99.90
22984;DHT22;11658;48.908;9.140;2022-12-29T07:12:10;11.00;99.90
22984;DHT22;11658;48.908;9.140;2022-12-29T07:14:36;10.90;99.90
22984;DHT22;11658;48.908;9.140;2022-12-29T07:17:02;10.90;99.90
22984;DHT22;11658;48.908;9.140;2022-12-29T07:19:30;10.90;99.90
22984;DHT22;11658;48.908;9.140;2022-12-29T07:21:56;10.90;99.90
22984;DHT22;11658;48.908;9.140;2022-12-29T07:24:22;10.90;99.90
22984;DHT22;11658;48.908;9.140;2022-12-29T07:26:47;10.90;99.90
22984;DHT22;11658;48.908;9.140;2022-12-29T07:29:13;11.00;99.90
22984;DHT22;11658;48.908;9.140;2022-12-29T07:31:38;11.10;99.90
22984;DHT22;11658;48.908;9.140;2022-12-29T07:34:04;11.10;99.90
22984;DHT22;11658;48.908;9.140;2022-12-29T07:36:29;11.10;99.90
22984;DHT22;11658;48.908;9.140;2022-12-29T07:38:55;11.20;99.90
22984;DHT22;11658;48.908;9.140;2022-12-29T07:41:20;11.20;99.90
22984;DHT22;11658;48.908;9.140;2022-12-29T07:43:47;11.20;99.90
22984;DHT22;11658;48.908;9.140;2022-12-29T07:46:14;11.20;99.90
22984;DHT22;11658;48.908;9.140;2022-12-29T07:48:39;11.20;99.90
22984;DHT22;11658;48.908;9.140;2022-12-29T07:51:05;11.30;99.90
22984;DHT22;11658;48.908;9.140;2022-12-29T07:53:31;11.30;99.90
22984;DHT22;11658;48.908;9.140;2022-12-29T07:55:57;11.30;99.90
22984;DHT22;11658;48.908;9.140;2022-12-29T07:58:23;11.30;99.90
22984;DHT22;11658;48.908;9.140;2022-12-29T08:00:53;11.20;99.90
22984;DHT22;11658;48.908;9.140;2022-12-29T08:03:19;11.20;99.90
22984;DHT22;11658;48.908;9.140;2022-12-29T08:05:44;11.20;99.90
22984;DHT22;11658;48.908;9.140;2022-12-29T08:08:10;11.20;99.90
22984;DHT22;11658;48.908;9.140;2022-12-29T08:10:36;11.20;99.90
22984;DHT22;11658;48.908;9.140;2022-12-29T08:13:01;11.20;99.90
22984;DHT22;11658;48.908;9.140;2022-12-29T08:15:27;11.20;99.90
22984;DHT22;11658;48.908;9.140;2022-12-29T08:17:52;11.20;99.90
22984;DHT22;11658;48.908;9.140;2022-12-29T08:20:18;11.20;99.90
22984;DHT22;11658;48.908;9.140;2022-12-29T08:22:43;11.20;99.90
22984;DHT22;11658;48.908;9.140;2022-12-29T08:25:09;11.30;99.90
22984;DHT22;11658;48.908;9.140;2022-12-29T08:27:35;11.30;99.90
22984;DHT22;11658;48.908;9.140;2022-12-29T08:30:00;11.30;99.90
22984;DHT22;11658;48.908;9.140;2022-12-29T08:32:27;11.20;99.90
22984;DHT22;11658;48.908;9.140;2022-12-29T08:34:54;11.20;99.90
22984;DHT22;11658;48.908;9.140;2022-12-29T08:37:19;11.20;99.90
22984;DHT22;11658;48.908;9.140;2022-12-29T08:39:45;11.30;99.90
22984;DHT22;11658;48.908;9.140;2022-12-29T08:42:11;11.20;99.90
22984;DHT22;11658;48.908;9.140;2022-12-29T08:44:37;11.20;99.90
22984;DHT22;11658;48.908;9.140;2022-12-29T08:47:02;11.20;99.90
22984;DHT22;11658;48.908;9.140;2022-12-29T08:49:28;11.20;99.90
22984;DHT22;11658;48.908;9.140;2022-12-29T08:51:53;11.20;99.90
22984;DHT22;11658;48.908;9.140;2022-12-29T08:54:19;11.30;99.90
22984;DHT22;11658;48.908;9.140;2022-12-29T08:56:44;11.20;99.90
22984;DHT22;11658;48.908;9.140;2022-12-29T08:59:10;11.30;99.90
22984;DHT22;11658;48.908;9.140;2022-12-29T09:01:36;11.40;99.90
22984;DHT22;11658;48.908;9.140;2022-12-29T09:04:04;11.40;99.90
22984;DHT22;11658;48.908;9.140;2022-12-29T09:06:29;11.40;99.90
22984;DHT22;11658;48.908;9.140;2022-12-29T09:08:55;11.40;99.90
22984;DHT22;11658;48.908;9.140;2022-12-29T09:11:23;11.60;99.90
22984;DHT22;11658;48.908;9.140;2022-12-29T09:13:49;11.60;99.90
22984;DHT22;11658;48.908;9.140;2022-12-29T09:16:16;11.70;99.90
22984;DHT22;11658;48.908;9.140;2022-12-29T09:18:42;11.80;99.90
22984;DHT22;11658;48.908;9.140;2022-12-29T09:21:09;11.80;99.90
22984;DHT22;11658;48.908;9.140;2022-12-29T09:23:35;11.80;99.90
22984;DHT22;11658;48.908;9.140;2022-12-29T09:26:01;11.80;99.90
22984;DHT22;11658;48.908;9.140;2022-12-29T09:28:27;11.80;99.90
22984;DHT22;11658;48.908;9.140;2022-12-29T09:30:54;11.90;99.90
22984;DHT22;11658;48.908;9.140;2022-12-29T09:33:20;11.90;99.90
22984;DHT22;11658;48.908;9.140;2022-12-29T09:35:51;12.00;99.90
22984;DHT22;11658;48.908;9.140;2022-12-29T09:38:17;12.10;99.90
22984;DHT22;11658;48.908;9.140;2022-12-29T09:40:47;12.10;99.90
22984;DHT22;11658;48.908;9.140;2022-12-29T09:46:38;12.30;99.90
22984;DHT22;11658;48.908;9.140;2022-12-29T09:51:39;12.40;99.90
22984;DHT22;11658;48.908;9.140;2022-12-29T09:54:24;12.50;99.90
22984;DHT22;11658;48.908;9.140;2022-12-29T09:56:54;12.70;99.90
22984;DHT22;11658;48.908;9.140;2022-12-29T09:59:24;12.80;99.90
22984;DHT22;11658;48.908;9.140;2022-12-29T10:02:04;12.80;99.90
22984;DHT22;11658;48.908;9.140;2022-12-29T10:04:34;12.90;99.90
22984;DHT22;11658;48.908;9.140;2022-12-29T10:07:04;12.90;99.90
22984;DHT22;11658;48.908;9.140;2022-12-29T10:12:32;13.00;99.90
22984;DHT22;11658;48.908;9.140;2022-12-29T10:15:28;13.00;99.90
22984;DHT22;11658;48.908;9.140;2022-12-29T10:17:59;13.00;99.90
22984;DHT22;11658;48.908;9.140;2022-12-29T10:25:55;12.90;99.90
22984;DHT22;11658;48.908;9.140;2022-12-29T10:28:24;12.80;99.90
22984;DHT22;11658;48.908;9.140;2022-12-29T10:30:51;12.80;99.90
22984;DHT22;11658;48.908;9.140;2022-12-29T10:33:22;12.90;99.90
22984;DHT22;11658;48.908;9.140;2022-12-29T10:35:50;12.90;99.90
22984;DHT22;11658;48.908;9.140;2022-12-29T10:38:39;12.90;99.90
22984;DHT22;11658;48.908;9.140;2022-12-29T10:41:15;13.00;99.90
22984;DHT22;11658;48.908;9.140;2022-12-29T10:43:44;13.00;99.90
22984;DHT22;11658;48.908;9.140;2022-12-29T10:46:14;13.00;99.90
22984;DHT22;11658;48.908;9.140;2022-12-29T10:48:41;13.00;99.90
22984;DHT22;11658;48.908;9.140;2022-12-29T10:51:11;12.90;99.90
22984;DHT22;11658;48.908;9.140;2022-12-29T10:53:51;12.90;99.90
22984;DHT22;11658;48.908;9.140;2022-12-29T10:58:50;12.90;99.90
22984;DHT22;11658;48.908;9.140;2022-12-29T11:01:17;13.00;99.90
22984;DHT22;11658;48.908;9.140;2022-12-29T11:06:21;12.90;99.90
22984;DHT22;11658;48.908;9.140;2022-12-29T11:09:00;12.80;99.90
22984;DHT22;11658;48.908;9.140;2022-12-29T11:11:33;12.80;99.90
22984;DHT22;11658;48.908;9.140;2022-12-29T11:14:10;12.70;99.90
22984;DHT22;11658;48.908;9.140;2022-12-29T11:16:38;12.80;99.90
22984;DHT22;11658;48.908;9.140;2022-12-29T11:19:04;13.00;99.90
22984;DHT22;11658;48.908;9.140;2022-12-29T11:24:01;13.10;99.90
22984;DHT22;11658;48.908;9.140;2022-12-29T11:26:28;13.20;99.90
22984;DHT22;11658;48.908;9.140;2022-12-29T11:31:56;13.30;99.90
22984;DHT22;11658;48.908;9.140;2022-12-29T11:34:35;13.30;99.90
22984;DHT22;11658;48.908;9.140;2022-12-29T11:41:57;13.20;99.90
22984;DHT22;11658;48.908;9.140;2022-12-29T11:44:24;13.20;99.90
22984;DHT22;11658;48.908;9.140;2022-12-29T11:46:51;13.10;99.90
22984;DHT22;11658;48.908;9.140;2022-12-29T11:49:23;13.10;99.90
22984;DHT22;11658;48.908;9.140;2022-12-29T11:51:51;13.20;99.90
22984;DHT22;11658;48.908;9.140;2022-12-29T11:54:27;13.20;99.90
22984;DHT22;11658;48.908;9.140;2022-12-29T11:56:55;13.20;99.90
22984;DHT22;11658;48.908;9.140;2022-12-29T12:01:52;13.10;99.90
22984;DHT22;11658;48.908;9.140;2022-12-29T12:04:21;13.10;99.90
22984;DHT22;11658;48.908;9.140;2022-12-29T12:09:47;13.10;99.90
22984;DHT22;11658;48.908;9.140;2022-12-29T12:12:39;13.10;99.90
22984;DHT22;11658;48.908;9.140;2022-12-29T12:15:15;13.00;99.90
22984;DHT22;11658;48.908;9.140;2022-12-29T12:17:54;13.00;99.90
22984;DHT22;11658;48.908;9.140;2022-12-29T12:28:49;12.80;99.90
22984;DHT22;11658;48.908;9.140;2022-12-29T12:34:04;12.60;99.90
22984;DHT22;11658;48.908;9.140;2022-12-29T12:42:39;12.80;99.90
22984;DHT22;11658;48.908;9.140;2022-12-29T12:45:32;12.80;99.90
22984;DHT22;11658;48.908;9.140;2022-12-29T12:48:28;12.80;99.90
22984;DHT22;11658;48.908;9.140;2022-12-29T12:51:23;12.90;99.90
22984;DHT22;11658;48.908;9.140;2022-12-29T12:56:45;13.00;99.90
22984;DHT22;11658;48.908;9.140;2022-12-29T13:10:53;13.20;99.90
22984;DHT22;11658;48.908;9.140;2022-12-29T13:27:21;13.20;99.90
22984;DHT22;11658;48.908;9.140;2022-12-29T13:30:14;13.30;99.90
22984;DHT22;11658;48.908;9.140;2022-12-29T13:32:53;13.20;99.90
22984;DHT22;11658;48.908;9.140;2022-12-29T13:40:36;12.90;99.90
22984;DHT22;11658;48.908;9.140;2022-12-29T13:43:05;12.70;99.90
22984;DHT22;11658;48.908;9.140;2022-12-29T13:45:32;12.60;99.90
22984;DHT22;11658;48.908;9.140;2022-12-29T13:50:35;12.50;99.90
22984;DHT22;11658;48.908;9.140;2022-12-29T13:55:55;12.50;99.90
22984;DHT22;11658;48.908;9.140;2022-12-29T14:00:57;12.50;99.90
22984;DHT22;11658;48.908;9.140;2022-12-29T14:06:15;12.50;99.90
22984;DHT22;11658;48.908;9.140;2022-12-29T14:08:42;12.50;99.90
22984;DHT22;11658;48.908;9.140;2022-12-29T14:11:10;12.50;99.90
22984;DHT22;11658;48.908;9.140;2022-12-29T14:13:39;12.40;99.90
22984;DHT22;11658;48.908;9.140;2022-12-29T14:16:06;12.40;99.90
22984;DHT22;11658;48.908;9.140;2022-12-29T14:18:33;12.30;99.90
22984;DHT22;11658;48.908;9.140;2022-12-29T14:21:20;12.30;99.90
22984;DHT22;11658;48.908;9.140;2022-12-29T14:23:49;12.30;99.90
22984;DHT22;11658;48.908;9.140;2022-12-29T14:28:54;12.20;99.90
22984;DHT22;11658;48.908;9.140;2022-12-29T14:39:38;12.30;99.90
22984;DHT22;11658;48.908;9.140;2022-12-29T14:45:07;12.30;99.90
22984;DHT22;11658;48.908;9.140;2022-12-29T14:47:39;12.20;99.90
22984;DHT22;11658;48.908;9.140;2022-12-29T14:50:13;12.30;99.90
22984;DHT22;11658;48.908;9.140;2022-12-29T14:52:58;12.30;99.90
22984;DHT22;11658;48.908;9.140;2022-12-29T14:55:41;12.30;99.90
22984;DHT22;11658;48.908;9.140;2022-12-29T14:59:01;12.30;99.90
22984;DHT22;11658;48.908;9.140;2022-12-29T15:01:00;12.30;99.90
22984;DHT22;11658;48.908;9.140;2022-12-29T15:03:35;12.20;99.90
22984;DHT22;11658;48.908;9.140;2022-12-29T15:06:08;12.20;99.90
22984;DHT22;11658;48.908;9.140;2022-12-29T15:08:49;12.10;99.90
22984;DHT22;11658;48.908;9.140;2022-12-29T15:11:24;12.10;99.90
22984;DHT22;11658;48.908;9.140;2022-12-29T15:13:50;12.00;99.90
22984;DHT22;11658;48.908;9.140;2022-12-29T15:16:32;12.00;99.90
22984;DHT22;11658;48.908;9.140;2022-12-29T15:19:01;11.90;99.90
22984;DHT22;11658;48.908;9.140;2022-12-29T15:21:34;11.90;99.90
22984;DHT22;11658;48.908;9.140;2022-12-29T15:24:00;11.90;99.90
22984;DHT22;11658;48.908;9.140;2022-12-29T15:26:39;11.90;99.90
22984;DHT22;11658;48.908;9.140;2022-12-29T15:29:26;11.80;99.90
22984;DHT22;11658;48.908;9.140;2022-12-29T15:31:51;11.90;99.90
22984;DHT22;11658;48.908;9.140;2022-12-29T15:34:20;11.60;99.90
22984;DHT22;11658;48.908;9.140;2022-12-29T15:36:50;10.80;99.90
22984;DHT22;11658;48.908;9.140;2022-12-29T15:39:34;10.10;99.90
22984;DHT22;11658;48.908;9.140;2022-12-29T15:42:06;9.70;99.90
22984;DHT22;11658;48.908;9.140;2022-12-29T15:44:39;9.50;99.90
22984;DHT22;11658;48.908;9.140;2022-12-29T15:47:28;9.30;99.90
22984;DHT22;11658;48.908;9.140;2022-12-29T15:50:13;9.30;99.90
22984;DHT22;11658;48.908;9.140;2022-12-29T15:52:40;9.20;99.90
22984;DHT22;11658;48.908;9.140;2022-12-29T15:55:10;9.20;99.90
22984;DHT22;11658;48.908;9.140;2022-12-29T15:57:43;9.20;99.90
22984;DHT22;11658;48.908;9.140;2022-12-29T16:00:38;9.20;99.90
22984;DHT22;11658;48.908;9.140;2022-12-29T16:03:05;9.20;99.90
22984;DHT22;11658;48.908;9.140;2022-12-29T16:05:37;9.10;99.90
22984;DHT22;11658;48.908;9.140;2022-12-29T16:08:03;9.20;99.90
22984;DHT22;11658;48.908;9.140;2022-12-29T16:10:43;9.20;99.90
22984;DHT22;11658;48.908;9.140;2022-12-29T16:13:25;9.20;99.90
22984;DHT22;11658;48.908;9.140;2022-12-29T16:16:16;9.20;99.90
22984;DHT22;11658;48.908;9.140;2022-12-29T16:18:40;9.20;99.90
22984;DHT22;11658;48.908;9.140;2022-12-29T16:21:16;9.20;99.90
22984;DHT22;11658;48.908;9.140;2022-12-29T16:23:49;9.10;99.90
22984;DHT22;11658;48.908;9.140;2022-12-29T16:26:19;9.20;99.90
22984;DHT22;11658;48.908;9.140;2022-12-29T16:28:49;9.10;99.90
22984;DHT22;11658;48.908;9.140;2022-12-29T16:31:25;9.10;99.90
22984;DHT22;11658;48.908;9.140;2022-12-29T16:33:57;9.10;99.90
22984;DHT22;11658;48.908;9.140;2022-12-29T16:36:52;9.10;99.90
22984;DHT22;11658;48.908;9.140;2022-12-29T16:39:20;9.10;99.90
22984;DHT22;11658;48.908;9.140;2022-12-29T16:41:47;9.20;99.90
22984;DHT22;11658;48.908;9.140;2022-12-29T16:49:32;9.20;99.90
22984;DHT22;11658;48.908;9.140;2022-12-29T16:51:58;9.30;99.90
22984;DHT22;11658;48.908;9.140;2022-12-29T16:54:31;9.20;99.90
22984;DHT22;11658;48.908;9.140;2022-12-29T16:56:57;9.20;99.90
22984;DHT22;11658;48.908;9.140;2022-12-29T16:59:25;9.30;99.90
22984;DHT22;11658;48.908;9.140;2022-12-29T17:01:55;9.30;99.90
22984;DHT22;11658;48.908;9.140;2022-12-29T17:04:22;9.30;99.90
22984;DHT22;11658;48.908;9.140;2022-12-29T17:06:57;9.30;99.90
22984;DHT22;11658;48.908;9.140;2022-12-29T17:09:25;9.20;99.90
22984;DHT22;11658;48.908;9.140;2022-12-29T17:11:56;9.20;99.90
22984;DHT22;11658;48.908;9.140;2022-12-29T17:15:03;9.20;99.90
22984;DHT22;11658;48.908;9.140;2022-12-29T17:17:39;9.20;99.90
22984;DHT22;11658;48.908;9.140;2022-12-29T17:20:24;9.20;99.90
22984;DHT22;11658;48.908;9.140;2022-12-29T17:22:51;9.20;99.90
22984;DHT22;11658;48.908;9.140;2022-12-29T17:25:23;9.20;99.90
22984;DHT22;11658;48.908;9.140;2022-12-29T17:28:01;9.20;99.90
22984;DHT22;11658;48.908;9.140;2022-12-29T17:30:28;9.20;99.90
22984;DHT22;11658;48.908;9.140;2022-12-29T17:32:57;9.20;99.90
22984;DHT22;11658;48.908;9.140;2022-12-29T17:35:23;9.10;99.90
22984;DHT22;11658;48.908;9.140;2022-12-29T17:37:49;9.20;99.90
22984;DHT22;11658;48.908;9.140;2022-12-29T17:40:27;9.20;99.90
22984;DHT22;11658;48.908;9.140;2022-12-29T17:42:55;9.10;99.90
22984;DHT22;11658;48.908;9.140;2022-12-29T17:45:29;9.10;99.90
22984;DHT22;11658;48.908;9.140;2022-12-29T17:47:56;9.10;99.90
22984;DHT22;11658;48.908;9.140;2022-12-29T17:50:25;9.10;99.90
22984;DHT22;11658;48.908;9.140;2022-12-29T17:52:53;9.00;99.90
22984;DHT22;11658;48.908;9.140;2022-12-29T17:55:21;9.00;99.90
22984;DHT22;11658;48.908;9.140;2022-12-29T17:57:47;9.00;99.90
22984;DHT22;11658;48.908;9.140;2022-12-29T18:00:20;9.00;99.90
22984;DHT22;11658;48.908;9.140;2022-12-29T18:02:46;9.00;99.90
22984;DHT22;11658;48.908;9.140;2022-12-29T18:05:20;9.00;99.90
22984;DHT22;11658;48.908;9.140;2022-12-29T18:07:47;8.90;99.90
22984;DHT22;11658;48.908;9.140;2022-12-29T18:10:14;8.90;99.90
22984;DHT22;11658;48.908;9.140;2022-12-29T18:12:42;8.90;99.90
22984;DHT22;11658;48.908;9.140;2022-12-29T18:15:18;8.90;99.90
22984;DHT22;11658;48.908;9.140;2022-12-29T18:17:44;8.90;99.90
22984;DHT22;11658;48.908;9.140;2022-12-29T18:20:10;9.10;99.90
22984;DHT22;11658;48.908;9.140;2022-12-29T18:22:36;8.80;99.90
22984;DHT22;11658;48.908;9.140;2022-12-29T18:25:01;8.70;99.90
22984;DHT22;11658;48.908;9.140;2022-12-29T18:27:27;8.70;99.90
22984;DHT22;11658;48.908;9.140;2022-12-29T18:29:53;8.70;99.90
22984;DHT22;11658;48.908;9.140;2022-12-29T18:32:18;8.60;99.90
22984;DHT22;11658;48.908;9.140;2022-12-29T18:34:45;8.60;99.90
22984;DHT22;11658;48.908;9.140;2022-12-29T18:37:12;8.50;99.90
22984;DHT22;11658;48.908;9.140;2022-12-29T18:39:38;8.50;99.90
22984;DHT22;11658;48.908;9.140;2022-12-29T18:42:04;8.50;99.90
22984;DHT22;11658;48.908;9.140;2022-12-29T18:44:30;8.60;99.90
22984;DHT22;11658;48.908;9.140;2022-12-29T18:46:56;8.50;99.90
22984;DHT22;11658;48.908;9.140;2022-12-29T18:49:22;8.60;99.90
22984;DHT22;11658;48.908;9.140;2022-12-29T18:51:48;8.60;99.90
22984;DHT22;11658;48.908;9.140;2022-12-29T18:54:34;8.60;99.90
22984;DHT22;11658;48.908;9.140;2022-12-29T18:56:59;8.50;99.90
22984;DHT22;11658;48.908;9.140;2022-12-29T18:59:25;8.50;99.90
22984;DHT22;11658;48.908;9.140;2022-12-29T19:01:51;8.50;99.90
22984;DHT22;11658;48.908;9.140;2022-12-29T19:04:17;8.50;99.90
22984;DHT22;11658;48.908;9.140;2022-12-29T19:06:43;8.40;99.90
22984;DHT22;11658;48.908;9.140;2022-12-29T19:09:08;8.40;99.90
22984;DHT22;11658;48.908;9.140;2022-12-29T19:11:34;8.40;99.90
22984;DHT22;11658;48.908;9.140;2022-12-29T19:14:00;8.40;99.90
22984;DHT22;11658;48.908;9.140;2022-12-29T19:16:25;8.40;99.90
22984;DHT22;11658;48.908;9.140;2022-12-29T19:18:51;8.30;99.90
22984;DHT22;11658;48.908;9.140;2022-12-29T19:21:19;8.30;99.90
22984;DHT22;11658;48.908;9.140;2022-12-29T19:23:45;8.30;99.90
22984;DHT22;11658;48.908;9.140;2022-12-29T19:26:32;8.30;99.90
22984;DHT22;11658;48.908;9.140;2022-12-29T19:28:59;8.20;99.90
22984;DHT22;11658;48.908;9.140;2022-12-29T19:31:24;8.20;99.90
22984;DHT22;11658;48.908;9.140;2022-12-29T19:33:50;8.20;99.90
22984;DHT22;11658;48.908;9.140;2022-12-29T19:36:16;8.10;99.90
22984;DHT22;11658;48.908;9.140;2022-12-29T19:38:42;8.10;99.90
22984;DHT22;11658;48.908;9.140;2022-12-29T19:41:08;8.00;99.90
22984;DHT22;11658;48.908;9.140;2022-12-29T19:43:33;8.00;99.90
22984;DHT22;11658;48.908;9.140;2022-12-29T19:46:05;7.90;99.90
22984;DHT22;11658;48.908;9.140;2022-12-29T19:48:32;8.00;99.90
22984;DHT22;11658;48.908;9.140;2022-12-29T19:51:17;8.00;99.90
22984;DHT22;11658;48.908;9.140;2022-12-29T19:53:46;8.00;99.90
22984;DHT22;11658;48.908;9.140;2022-12-29T19:56:12;8.00;99.90
22984;DHT22;11658;48.908;9.140;2022-12-29T19:58:38;8.00;99.90
22984;DHT22;11658;48.908;9.140;2022-12-29T20:01:14;8.00;99.90
22984;DHT22;11658;48.908;9.140;2022-12-29T20:03:40;8.00;99.90
22984;DHT22;11658;48.908;9.140;2022-12-29T20:06:08;8.00;99.90
22984;DHT22;11658;48.908;9.140;2022-12-29T20:08:34;8.00;99.90
22984;DHT22;11658;48.908;9.140;2022-12-29T20:11:09;8.00;99.90
22984;DHT22;11658;48.908;9.140;2022-12-29T20:13:38;8.00;99.90
22984;DHT22;11658;48.908;9.140;2022-12-29T20:16:06;8.00;99.90
22984;DHT22;11658;48.908;9.140;2022-12-29T20:18:33;8.00;99.90
22984;DHT22;11658;48.908;9.140;2022-12-29T20:21:15;8.00;99.90
22984;DHT22;11658;48.908;9.140;2022-12-29T20:23:42;8.00;99.90
22984;DHT22;11658;48.908;9.140;2022-12-29T20:26:15;7.90;99.90
22984;DHT22;11658;48.908;9.140;2022-12-29T20:28:41;7.90;99.90
22984;DHT22;11658;48.908;9.140;2022-12-29T20:31:20;7.90;99.90
22984;DHT22;11658;48.908;9.140;2022-12-29T20:33:47;8.00;99.90
22984;DHT22;11658;48.908;9.140;2022-12-29T20:36:16;7.90;99.90
22984;DHT22;11658;48.908;9.140;2022-12-29T20:38:43;7.90;99.90
22984;DHT22;11658;48.908;9.140;2022-12-29T20:41:09;7.90;99.90
22984;DHT22;11658;48.908;9.140;2022-12-29T20:43:35;7.90;99.90
22984;DHT22;11658;48.908;9.140;2022-12-29T20:46:00;7.80;99.90
22984;DHT22;11658;48.908;9.140;2022-12-29T20:48:26;7.80;99.90
22984;DHT22;11658;48.908;9.140;2022-12-29T20:50:52;7.80;99.90
22984;DHT22;11658;48.908;9.140;2022-12-29T20:53:18;7.80;99.90
22984;DHT22;11658;48.908;9.140;2022-12-29T20:55:45;7.70;99.90
22984;DHT22;11658;48.908;9.140;2022-12-29T20:58:11;7.60;99.90
22984;DHT22;11658;48.908;9.140;2022-12-29T21:00:36;7.60;99.90
22984;DHT22;11658;48.908;9.140;2022-12-29T21:03:02;7.60;99.90
22984;DHT22;11658;48.908;9.140;2022-12-29T21:05:28;7.60;99.90
22984;DHT22;11658;48.908;9.140;2022-12-29T21:07:54;7.60;99.90
22984;DHT22;11658;48.908;9.140;2022-12-29T21:10:21;7.60;99.90
22984;DHT22;11658;48.908;9.140;2022-12-29T21:12:47;7.50;99.90
22984;DHT22;11658;48.908;9.140;2022-12-29T21:15:13;7.50;99.90
22984;DHT22;11658;48.908;9.140;2022-12-29T21:17:40;7.50;99.90
22984;DHT22;11658;48.908;9.140;2022-12-29T21:20:06;7.50;99.90
22984;DHT22;11658;48.908;9.140;2022-12-29T21:22:32;7.50;99.90
22984;DHT22;11658;48.908;9.140;2022-12-29T21:24:58;7.50;99.90
22984;DHT22;11658;48.908;9.140;2022-12-29T21:27:24;7.60;99.90
22984;DHT22;11658;48.908;9.140;2022-12-29T21:29:49;7.50;99.90
22984;DHT22;11658;48.908;9.140;2022-12-29T21:32:15;7.60;99.90
22984;DHT22;11658;48.908;9.140;2022-12-29T21:34:41;7.60;99.90
22984;DHT22;11658;48.908;9.140;2022-12-29T21:37:06;7.60;99.90
22984;DHT22;11658;48.908;9.140;2022-12-29T21:39:32;7.60;99.90
22984;DHT22;11658;48.908;9.140;2022-12-29T21:41:58;7.60;99.90
22984;DHT22;11658;48.908;9.140;2022-12-29T21:44:25;7.60;99.90
22984;DHT22;11658;48.908;9.140;2022-12-29T21:47:09;7.50;99.90